PWSweather.com
Personal Weather Stations
Station Observations
KCOBLACK1
Chalet Park, Black Hawk, CO 80422

Chalet ParkBlack Hawk, CO 80422

Lat: 39.8294, Lon: -105.48

Elevation: 9370

Station Type: Vantage Pro2

http://www.oscaranddeb.com/weather

Latest ConditionsUpdated 1:05:05 PM MDT Friday, Aug 28, 2015
Currently Today's Max Today's Min Today's Average
Temperature 61.7°F16.5°C 62.7°F17.1°C 48.7°F9.3°C 53.8°F12.1°C
Dew Point 42.3°F5.7°C 42.5°F5.8°C 37.2°F2.9°C 40.3°F4.6°C
Winds 2.0 mph NE3.2 kmh NE 17.0 mph W27.4 kmh W - 5.1 mph 8.2 kmh
Wind Gusts 8.0 mph12.9 kmh 25.0 mph40.2 kmh - -
Humidity 49% 72% 41% 61%
Pressure 29.93 in1013.5 mb 29.96 in1014.6 mb 29.84 in1010.5 mb -
Hour Temp Dew Point Humidity Winds Wind Gusts Pressure Precip Precip Rate Daily Precip Total
01:05 PM 61.7°F16.5°C 42.3°F5.7°C 49% 2.0 mph NE3.2 kmh NE 8.0 mph12.9 kmh 29.93 in1013.5 mb 0.00 in0.0 mm 0.00 in0.0 mm 0.00 in0.0 mm
01:00 PM 61.7°F16.5°C 42.3°F5.7°C 49% 2.0 mph ESE3.2 kmh ESE 7.0 mph11.3 kmh 29.94 in1013.9 mb 0.00 in0.0 mm 0.00 in0.0 mm 0.00 in0.0 mm
12:55 PM 61.9°F16.6°C 42.5°F5.8°C 49% 1.0 mph NNE1.6 kmh NNE 3.0 mph4.8 kmh 29.94 in1013.9 mb 0.00 in0.0 mm 0.00 in0.0 mm 0.00 in0.0 mm
12:50 PM 62.3°F16.8°C 41.2°F5.1°C 46% Calm Calm 6.0 mph9.7 kmh 29.94 in1013.9 mb 0.00 in0.0 mm 0.00 in0.0 mm 0.00 in0.0 mm
12:45 PM 62.7°F17.1°C 42.1°F5.6°C 47% 5.0 mph NE8.0 kmh NE 7.0 mph11.3 kmh 29.94 in1013.9 mb 0.00 in0.0 mm 0.00 in0.0 mm 0.00 in0.0 mm
12:40 PM 62.6°F17.0°C 42.0°F5.6°C 47% 4.0 mph ENE6.4 kmh ENE 11.0 mph17.7 kmh 29.94 in1013.9 mb 0.00 in0.0 mm 0.00 in0.0 mm 0.00 in0.0 mm
12:35 PM 61.6°F16.4°C 41.1°F5.1°C 47% Calm Calm 4.0 mph6.4 kmh 29.94 in1013.9 mb 0.00 in0.0 mm 0.00 in0.0 mm 0.00 in0.0 mm
12:30 PM 61.0°F16.1°C 37.7°F3.2°C 42% 1.0 mph 1.6 kmh 8.0 mph12.9 kmh 29.95 in1014.2 mb 0.00 in0.0 mm 0.00 in0.0 mm 0.00 in0.0 mm
12:25 PM 61.4°F16.3°C 37.4°F3.0°C 41% 4.0 mph N6.4 kmh N 12.0 mph19.3 kmh 29.95 in1014.2 mb 0.00 in0.0 mm 0.00 in0.0 mm 0.00 in0.0 mm
12:20 PM 61.1°F16.2°C 39.0°F3.9°C 44% 1.0 mph NE1.6 kmh NE 8.0 mph12.9 kmh 29.95 in1014.2 mb 0.00 in0.0 mm 0.00 in0.0 mm 0.00 in0.0 mm
12:15 PM 60.5°F15.8°C 37.2°F2.9°C 42% 1.0 mph NW1.6 kmh NW 10.0 mph16.1 kmh 29.95 in1014.2 mb 0.00 in0.0 mm 0.00 in0.0 mm 0.00 in0.0 mm
12:10 PM 61.0°F16.1°C 37.7°F3.2°C 42% 4.0 mph N6.4 kmh N 13.0 mph20.9 kmh 29.95 in1014.2 mb 0.00 in0.0 mm 0.00 in0.0 mm 0.00 in0.0 mm
12:05 PM 61.4°F16.3°C 37.4°F3.0°C 41% 3.0 mph WSW4.8 kmh WSW 9.0 mph14.5 kmh 29.95 in1014.2 mb 0.00 in0.0 mm 0.00 in0.0 mm 0.00 in0.0 mm
12:00 PM 60.2°F15.7°C 39.8°F4.3°C 47% 8.0 mph WNW12.9 kmh WNW 11.0 mph17.7 kmh 29.96 in1014.6 mb 0.00 in0.0 mm 0.00 in0.0 mm 0.00 in0.0 mm
11:55 AM 59.5°F15.3°C 37.5°F3.1°C 44% Calm Calm 7.0 mph11.3 kmh 29.96 in1014.6 mb 0.00 in0.0 mm 0.00 in0.0 mm 0.00 in0.0 mm
11:50 AM 59.8°F15.4°C 38.9°F3.8°C 46% Calm Calm 12.0 mph19.3 kmh 29.96 in1014.6 mb 0.00 in0.0 mm 0.00 in0.0 mm 0.00 in0.0 mm
11:45 AM 60.3°F15.7°C 38.2°F3.4°C 44% 9.0 mph N14.5 kmh N 13.0 mph20.9 kmh 29.96 in1014.6 mb 0.00 in0.0 mm 0.00 in0.0 mm 0.00 in0.0 mm
11:40 AM 61.1°F16.2°C 37.8°F3.2°C 42% 5.0 mph WNW8.0 kmh WNW 12.0 mph19.3 kmh 29.96 in1014.6 mb 0.00 in0.0 mm 0.00 in0.0 mm 0.00 in0.0 mm
11:35 AM 61.7°F16.5°C 38.3°F3.5°C 42% 2.0 mph WNW3.2 kmh WNW 9.0 mph14.5 kmh 29.96 in1014.6 mb 0.00 in0.0 mm 0.00 in0.0 mm 0.00 in0.0 mm
11:30 AM 61.3°F16.3°C 38.6°F3.7°C 43% 7.0 mph SW11.3 kmh SW 9.0 mph14.5 kmh 29.96 in1014.6 mb 0.00 in0.0 mm 0.00 in0.0 mm 0.00 in0.0 mm
11:25 AM 60.6°F15.9°C 39.1°F3.9°C 45% Calm Calm 13.0 mph20.9 kmh 29.96 in1014.6 mb 0.00 in0.0 mm 0.00 in0.0 mm 0.00 in0.0 mm
11:20 AM 60.2°F15.7°C 38.7°F3.7°C 45% 11.0 mph N17.7 kmh N 12.0 mph19.3 kmh 29.96 in1014.6 mb 0.00 in0.0 mm 0.00 in0.0 mm 0.00 in0.0 mm
11:15 AM 60.0°F15.6°C 38.0°F3.3°C 44% 3.0 mph N4.8 kmh N 15.0 mph24.1 kmh 29.96 in1014.6 mb 0.00 in0.0 mm 0.00 in0.0 mm 0.00 in0.0 mm
11:10 AM 59.6°F15.3°C 39.3°F4.1°C 47% 2.0 mph NW3.2 kmh NW 9.0 mph14.5 kmh 29.96 in1014.6 mb 0.00 in0.0 mm 0.00 in0.0 mm 0.00 in0.0 mm
11:05 AM 59.1°F15.1°C 39.4°F4.1°C 48% 4.0 mph NNW6.4 kmh NNW 15.0 mph24.1 kmh 29.96 in1014.6 mb 0.00 in0.0 mm 0.00 in0.0 mm 0.00 in0.0 mm
11:00 AM 58.6°F14.8°C 38.9°F3.8°C 48% 5.0 mph NW8.0 kmh NW 11.0 mph17.7 kmh 29.96 in1014.6 mb 0.00 in0.0 mm 0.00 in0.0 mm 0.00 in0.0 mm
10:55 AM 58.5°F14.7°C 39.4°F4.1°C 49% 6.0 mph NW9.7 kmh NW 12.0 mph19.3 kmh 29.96 in1014.6 mb 0.00 in0.0 mm 0.00 in0.0 mm 0.00 in0.0 mm
10:50 AM 58.7°F14.8°C 39.0°F3.9°C 48% 4.0 mph WNW6.4 kmh WNW 11.0 mph17.7 kmh 29.96 in1014.6 mb 0.00 in0.0 mm 0.00 in0.0 mm 0.00 in0.0 mm
10:45 AM 59.3°F15.2°C 40.1°F4.5°C 49% 4.0 mph NW6.4 kmh NW 13.0 mph20.9 kmh 29.96 in1014.6 mb 0.00 in0.0 mm 0.00 in0.0 mm 0.00 in0.0 mm
10:40 AM 58.7°F14.8°C 41.1°F5.1°C 52% 6.0 mph W9.7 kmh W 13.0 mph20.9 kmh 29.95 in1014.2 mb 0.00 in0.0 mm 0.00 in0.0 mm 0.00 in0.0 mm
10:35 AM 58.4°F14.7°C 40.3°F4.6°C 51% 12.0 mph N19.3 kmh N 12.0 mph19.3 kmh 29.96 in1014.6 mb 0.00 in0.0 mm 0.00 in0.0 mm 0.00 in0.0 mm
10:30 AM 58.4°F14.7°C 40.3°F4.6°C 51% 3.0 mph W4.8 kmh W 12.0 mph19.3 kmh 29.96 in1014.6 mb 0.00 in0.0 mm 0.00 in0.0 mm 0.00 in0.0 mm
10:25 AM 58.2°F14.6°C 40.1°F4.5°C 51% 5.0 mph NW8.0 kmh NW 12.0 mph19.3 kmh 29.96 in1014.6 mb 0.00 in0.0 mm 0.00 in0.0 mm 0.00 in0.0 mm
10:20 AM 58.0°F14.4°C 40.4°F4.7°C 52% 6.0 mph N9.7 kmh N 13.0 mph20.9 kmh 29.95 in1014.2 mb 0.00 in0.0 mm 0.00 in0.0 mm 0.00 in0.0 mm
10:15 AM 57.5°F14.2°C 39.5°F4.2°C 51% 8.0 mph NNW12.9 kmh NNW 15.0 mph24.1 kmh 29.95 in1014.2 mb 0.00 in0.0 mm 0.00 in0.0 mm 0.00 in0.0 mm
10:10 AM 57.3°F14.1°C 39.8°F4.3°C 52% 9.0 mph NW14.5 kmh NW 19.0 mph30.6 kmh 29.95 in1014.2 mb 0.00 in0.0 mm 0.00 in0.0 mm 0.00 in0.0 mm
10:05 AM 57.6°F14.2°C 39.6°F4.2°C 51% 10.0 mph NW16.1 kmh NW 13.0 mph20.9 kmh 29.95 in1014.2 mb 0.00 in0.0 mm 0.00 in0.0 mm 0.00 in0.0 mm
10:00 AM 57.5°F14.2°C 41.4°F5.2°C 55% 4.0 mph NW6.4 kmh NW 11.0 mph17.7 kmh 29.95 in1014.2 mb 0.00 in0.0 mm 0.00 in0.0 mm 0.00 in0.0 mm
09:55 AM 57.0°F13.9°C 39.5°F4.2°C 52% 2.0 mph NW3.2 kmh NW 14.0 mph22.5 kmh 29.95 in1014.2 mb 0.00 in0.0 mm 0.00 in0.0 mm 0.00 in0.0 mm
09:50 AM 56.6°F13.7°C 40.1°F4.5°C 54% 2.0 mph NW3.2 kmh NW 17.0 mph27.4 kmh 29.95 in1014.2 mb 0.00 in0.0 mm 0.00 in0.0 mm 0.00 in0.0 mm
09:45 AM 56.4°F13.6°C 40.4°F4.7°C 55% 10.0 mph NW16.1 kmh NW 17.0 mph27.4 kmh 29.94 in1013.9 mb 0.00 in0.0 mm 0.00 in0.0 mm 0.00 in0.0 mm
09:40 AM 56.0°F13.3°C 40.9°F4.9°C 57% 6.0 mph N9.7 kmh N 21.0 mph33.8 kmh 29.94 in1013.9 mb 0.00 in0.0 mm 0.00 in0.0 mm 0.00 in0.0 mm
09:35 AM 55.7°F13.2°C 41.1°F5.1°C 58% 13.0 mph NW20.9 kmh NW 17.0 mph27.4 kmh 29.94 in1013.9 mb 0.00 in0.0 mm 0.00 in0.0 mm 0.00 in0.0 mm
09:30 AM 55.1°F12.8°C 41.0°F5.0°C 59% 2.0 mph NW3.2 kmh NW 19.0 mph30.6 kmh 29.94 in1013.9 mb 0.00 in0.0 mm 0.00 in0.0 mm 0.00 in0.0 mm
09:25 AM 54.5°F12.5°C 41.3°F5.2°C 61% Calm Calm 15.0 mph24.1 kmh 29.94 in1013.9 mb 0.00 in0.0 mm 0.00 in0.0 mm 0.00 in0.0 mm
09:20 AM 54.1°F12.3°C 40.5°F4.7°C 60% 3.0 mph WNW4.8 kmh WNW 21.0 mph33.8 kmh 29.94 in1013.9 mb 0.00 in0.0 mm 0.00 in0.0 mm 0.00 in0.0 mm
09:15 AM 54.0°F12.2°C 40.4°F4.7°C 60% 8.0 mph NNW12.9 kmh NNW 17.0 mph27.4 kmh 29.93 in1013.5 mb 0.00 in0.0 mm 0.00 in0.0 mm 0.00 in0.0 mm
09:10 AM 54.2°F12.3°C 41.0°F5.0°C 61% 9.0 mph WNW14.5 kmh WNW 12.0 mph19.3 kmh 29.93 in1013.5 mb 0.00 in0.0 mm 0.00 in0.0 mm 0.00 in0.0 mm
09:05 AM 54.4°F12.4°C 41.2°F5.1°C 61% 5.0 mph NW8.0 kmh NW 12.0 mph19.3 kmh 29.93 in1013.5 mb 0.00 in0.0 mm 0.00 in0.0 mm 0.00 in0.0 mm
09:00 AM 54.5°F12.5°C 41.3°F5.2°C 61% 4.0 mph W6.4 kmh W 11.0 mph17.7 kmh 29.93 in1013.5 mb 0.00 in0.0 mm 0.00 in0.0 mm 0.00 in0.0 mm
08:55 AM 54.1°F12.3°C 40.9°F4.9°C 61% 5.0 mph N8.0 kmh N 15.0 mph24.1 kmh 29.93 in1013.5 mb 0.00 in0.0 mm 0.00 in0.0 mm 0.00 in0.0 mm
08:50 AM 53.9°F12.2°C 41.1°F5.1°C 62% 3.0 mph SW4.8 kmh SW 16.0 mph25.7 kmh 29.93 in1013.5 mb 0.00 in0.0 mm 0.00 in0.0 mm 0.00 in0.0 mm
08:45 AM 53.5°F11.9°C 41.6°F5.3°C 64% 7.0 mph WNW11.3 kmh WNW 15.0 mph24.1 kmh 29.93 in1013.5 mb 0.00 in0.0 mm 0.00 in0.0 mm 0.00 in0.0 mm
08:40 AM 53.2°F11.8°C 41.7°F5.4°C 65% 7.0 mph WNW11.3 kmh WNW 12.0 mph19.3 kmh 29.93 in1013.5 mb 0.00 in0.0 mm 0.00 in0.0 mm 0.00 in0.0 mm
08:35 AM 52.8°F11.6°C 41.3°F5.2°C 65% 9.0 mph NW14.5 kmh NW 11.0 mph17.7 kmh 29.92 in1013.2 mb 0.00 in0.0 mm 0.00 in0.0 mm 0.00 in0.0 mm
08:30 AM 52.5°F11.4°C 41.4°F5.2°C 66% 7.0 mph NW11.3 kmh NW 13.0 mph20.9 kmh 29.92 in1013.2 mb 0.00 in0.0 mm 0.00 in0.0 mm 0.00 in0.0 mm
08:25 AM 52.3°F11.3°C 41.2°F5.1°C 66% 9.0 mph N14.5 kmh N 10.0 mph16.1 kmh 29.92 in1013.2 mb 0.00 in0.0 mm 0.00 in0.0 mm 0.00 in0.0 mm
08:20 AM 52.2°F11.2°C 41.5°F5.3°C 67% 1.0 mph SW1.6 kmh SW 11.0 mph17.7 kmh 29.92 in1013.2 mb 0.00 in0.0 mm 0.00 in0.0 mm 0.00 in0.0 mm
08:15 AM 51.9°F11.1°C 41.2°F5.1°C 67% 11.0 mph W17.7 kmh W 14.0 mph22.5 kmh 29.92 in1013.2 mb 0.00 in0.0 mm 0.00 in0.0 mm 0.00 in0.0 mm
08:10 AM 51.7°F10.9°C 41.0°F5.0°C 67% 11.0 mph NW17.7 kmh NW 16.0 mph25.7 kmh 29.92 in1013.2 mb 0.00 in0.0 mm 0.00 in0.0 mm 0.00 in0.0 mm
08:05 AM 51.5°F10.8°C 41.2°F5.1°C 68% 4.0 mph NW6.4 kmh NW 11.0 mph17.7 kmh 29.92 in1013.2 mb 0.00 in0.0 mm 0.00 in0.0 mm 0.00 in0.0 mm
08:00 AM 51.4°F10.8°C 41.1°F5.1°C 68% 3.0 mph W4.8 kmh W 12.0 mph19.3 kmh 29.92 in1013.2 mb 0.00 in0.0 mm 0.00 in0.0 mm 0.00 in0.0 mm
07:55 AM 51.2°F10.7°C 41.0°F5.0°C 68% 2.0 mph W3.2 kmh W 9.0 mph14.5 kmh 29.92 in1013.2 mb 0.00 in0.0 mm 0.00 in0.0 mm 0.00 in0.0 mm
07:50 AM 51.0°F10.6°C 40.8°F4.9°C 68% 4.0 mph NW6.4 kmh NW 9.0 mph14.5 kmh 29.92 in1013.2 mb 0.00 in0.0 mm 0.00 in0.0 mm 0.00 in0.0 mm
07:45 AM 50.8°F10.4°C 41.0°F5.0°C 69% 1.0 mph NW1.6 kmh NW 11.0 mph17.7 kmh 29.92 in1013.2 mb 0.00 in0.0 mm 0.00 in0.0 mm 0.00 in0.0 mm
07:40 AM 50.6°F10.3°C 40.8°F4.9°C 69% 4.0 mph NW6.4 kmh NW 10.0 mph16.1 kmh 29.91 in1012.9 mb 0.00 in0.0 mm 0.00 in0.0 mm 0.00 in0.0 mm
07:35 AM 50.5°F10.3°C 40.7°F4.8°C 69% 1.0 mph WNW1.6 kmh WNW 9.0 mph14.5 kmh 29.91 in1012.9 mb 0.00 in0.0 mm 0.00 in0.0 mm 0.00 in0.0 mm
07:30 AM 50.4°F10.2°C 40.9°F4.9°C 70% 4.0 mph NW6.4 kmh NW 8.0 mph12.9 kmh 29.91 in1012.9 mb 0.00 in0.0 mm 0.00 in0.0 mm 0.00 in0.0 mm
07:25 AM 50.3°F10.2°C 40.8°F4.9°C 70% 6.0 mph W9.7 kmh W 11.0 mph17.7 kmh 29.91 in1012.9 mb 0.00 in0.0 mm 0.00 in0.0 mm 0.00 in0.0 mm
07:20 AM 50.1°F10.1°C 40.7°F4.8°C 70% 2.0 mph W3.2 kmh W 12.0 mph19.3 kmh 29.90 in1012.5 mb 0.00 in0.0 mm 0.00 in0.0 mm 0.00 in0.0 mm
07:15 AM 50.0°F10.0°C 40.6°F4.8°C 70% 4.0 mph NW6.4 kmh NW 12.0 mph19.3 kmh 29.90 in1012.5 mb 0.00 in0.0 mm 0.00 in0.0 mm 0.00 in0.0 mm
07:10 AM 49.8°F9.9°C 40.4°F4.7°C 70% 9.0 mph NW14.5 kmh NW 11.0 mph17.7 kmh 29.90 in1012.5 mb 0.00 in0.0 mm 0.00 in0.0 mm 0.00 in0.0 mm
07:05 AM 49.7°F9.8°C 40.3°F4.6°C 70% 7.0 mph W11.3 kmh W 12.0 mph19.3 kmh 29.90 in1012.5 mb 0.00 in0.0 mm 0.00 in0.0 mm 0.00 in0.0 mm
07:00 AM 49.7°F9.8°C 40.3°F4.6°C 70% 5.0 mph WNW8.0 kmh WNW 14.0 mph22.5 kmh 29.89 in1012.2 mb 0.00 in0.0 mm 0.00 in0.0 mm 0.00 in0.0 mm
06:55 AM 49.8°F9.9°C 40.4°F4.7°C 70% 12.0 mph NNW19.3 kmh NNW 13.0 mph20.9 kmh 29.89 in1012.2 mb 0.00 in0.0 mm 0.00 in0.0 mm 0.00 in0.0 mm
06:50 AM 49.8°F9.9°C 40.4°F4.7°C 70% 12.0 mph NNW19.3 kmh NNW 17.0 mph27.4 kmh 29.89 in1012.2 mb 0.00 in0.0 mm 0.00 in0.0 mm 0.00 in0.0 mm
06:45 AM 49.9°F9.9°C 40.5°F4.7°C 70% 8.0 mph NNW12.9 kmh NNW 15.0 mph24.1 kmh 29.89 in1012.2 mb 0.00 in0.0 mm 0.00 in0.0 mm 0.00 in0.0 mm
06:40 AM 49.9°F9.9°C 40.5°F4.7°C 70% 4.0 mph NW6.4 kmh NW 14.0 mph22.5 kmh 29.89 in1012.2 mb 0.00 in0.0 mm 0.00 in0.0 mm 0.00 in0.0 mm
06:35 AM 49.8°F9.9°C 40.4°F4.7°C 70% 1.0 mph NNW1.6 kmh NNW 15.0 mph24.1 kmh 29.88 in1011.9 mb 0.00 in0.0 mm 0.00 in0.0 mm 0.00 in0.0 mm
06:30 AM 50.0°F10.0°C 40.6°F4.8°C 70% 2.0 mph N3.2 kmh N 7.0 mph11.3 kmh 29.88 in1011.9 mb 0.00 in0.0 mm 0.00 in0.0 mm 0.00 in0.0 mm
06:25 AM 50.1°F10.1°C 40.3°F4.6°C 69% 1.0 mph W1.6 kmh W 10.0 mph16.1 kmh 29.88 in1011.9 mb 0.00 in0.0 mm 0.00 in0.0 mm 0.00 in0.0 mm
06:20 AM 50.2°F10.1°C 40.4°F4.7°C 69% 10.0 mph N16.1 kmh N 11.0 mph17.7 kmh 29.88 in1011.9 mb 0.00 in0.0 mm 0.00 in0.0 mm 0.00 in0.0 mm
06:15 AM 50.2°F10.1°C 40.4°F4.7°C 69% 7.0 mph NW11.3 kmh NW 8.0 mph12.9 kmh 29.87 in1011.5 mb 0.00 in0.0 mm 0.00 in0.0 mm 0.00 in0.0 mm
06:10 AM 50.3°F10.2°C 40.5°F4.7°C 69% 7.0 mph WNW11.3 kmh WNW 12.0 mph19.3 kmh 29.87 in1011.5 mb 0.00 in0.0 mm 0.00 in0.0 mm 0.00 in0.0 mm
06:05 AM 50.4°F10.2°C 40.6°F4.8°C 69% 5.0 mph NW8.0 kmh NW 11.0 mph17.7 kmh 29.87 in1011.5 mb 0.00 in0.0 mm 0.00 in0.0 mm 0.00 in0.0 mm
06:00 AM 50.4°F10.2°C 40.6°F4.8°C 69% 5.0 mph NW8.0 kmh NW 11.0 mph17.7 kmh 29.87 in1011.5 mb 0.00 in0.0 mm 0.00 in0.0 mm 0.00 in0.0 mm
05:55 AM 50.2°F10.1°C 40.4°F4.7°C 69% 6.0 mph NW9.7 kmh NW 11.0 mph17.7 kmh 29.87 in1011.5 mb 0.00 in0.0 mm 0.00 in0.0 mm 0.00 in0.0 mm
05:50 AM 50.1°F10.1°C 40.3°F4.6°C 69% 6.0 mph NW9.7 kmh NW 10.0 mph16.1 kmh 29.87 in1011.5 mb 0.00 in0.0 mm 0.00 in0.0 mm 0.00 in0.0 mm
05:45 AM 50.2°F10.1°C 40.0°F4.4°C 68% 6.0 mph NW9.7 kmh NW 8.0 mph12.9 kmh 29.86 in1011.2 mb 0.00 in0.0 mm 0.00 in0.0 mm 0.00 in0.0 mm
05:40 AM 50.3°F10.2°C 40.1°F4.5°C 68% 6.0 mph NNW9.7 kmh NNW 9.0 mph14.5 kmh 29.86 in1011.2 mb 0.00 in0.0 mm 0.00 in0.0 mm 0.00 in0.0 mm
05:35 AM 50.5°F10.3°C 40.3°F4.6°C 68% 4.0 mph WNW6.4 kmh WNW 10.0 mph16.1 kmh 29.86 in1011.2 mb 0.00 in0.0 mm 0.00 in0.0 mm 0.00 in0.0 mm
05:30 AM 50.5°F10.3°C 40.3°F4.6°C 68% 9.0 mph NW14.5 kmh NW 10.0 mph16.1 kmh 29.86 in1011.2 mb 0.00 in0.0 mm 0.00 in0.0 mm 0.00 in0.0 mm
05:25 AM 50.6°F10.3°C 40.4°F4.7°C 68% 4.0 mph NW6.4 kmh NW 13.0 mph20.9 kmh 29.86 in1011.2 mb 0.00 in0.0 mm 0.00 in0.0 mm 0.00 in0.0 mm
05:20 AM 50.4°F10.2°C 40.6°F4.8°C 69% 4.0 mph WNW6.4 kmh WNW 11.0 mph17.7 kmh 29.85 in1010.8 mb 0.00 in0.0 mm 0.00 in0.0 mm 0.00 in0.0 mm
05:15 AM 50.4°F10.2°C 40.6°F4.8°C 69% 7.0 mph WNW11.3 kmh WNW 9.0 mph14.5 kmh 29.85 in1010.8 mb 0.00 in0.0 mm 0.00 in0.0 mm 0.00 in0.0 mm
05:10 AM 50.2°F10.1°C 40.4°F4.7°C 69% 3.0 mph W4.8 kmh W 9.0 mph14.5 kmh 29.86 in1011.2 mb 0.00 in0.0 mm 0.00 in0.0 mm 0.00 in0.0 mm
05:05 AM 50.2°F10.1°C 40.4°F4.7°C 69% 2.0 mph W3.2 kmh W 9.0 mph14.5 kmh 29.85 in1010.8 mb 0.00 in0.0 mm 0.00 in0.0 mm 0.00 in0.0 mm
05:00 AM 49.9°F9.9°C 40.5°F4.7°C 70% 5.0 mph NW8.0 kmh NW 9.0 mph14.5 kmh 29.85 in1010.8 mb 0.00 in0.0 mm 0.00 in0.0 mm 0.00 in0.0 mm
04:55 AM 49.7°F9.8°C 40.6°F4.8°C 71% 2.0 mph W3.2 kmh W 6.0 mph9.7 kmh 29.85 in1010.8 mb 0.00 in0.0 mm 0.00 in0.0 mm 0.00 in0.0 mm
04:50 AM 49.0°F9.4°C 40.3°F4.6°C 72% 4.0 mph NW6.4 kmh NW 4.0 mph6.4 kmh 29.85 in1010.8 mb 0.00 in0.0 mm 0.00 in0.0 mm 0.00 in0.0 mm
04:45 AM 48.7°F9.3°C 40.0°F4.4°C 72% 2.0 mph SW3.2 kmh SW 4.0 mph6.4 kmh 29.85 in1010.8 mb 0.00 in0.0 mm 0.00 in0.0 mm 0.00 in0.0 mm
04:40 AM 48.8°F9.3°C 40.1°F4.5°C 72% Calm Calm 5.0 mph8.0 kmh 29.86 in1011.2 mb 0.00 in0.0 mm 0.00 in0.0 mm 0.00 in0.0 mm
04:35 AM 49.3°F9.6°C 40.2°F4.6°C 71% 5.0 mph NE8.0 kmh NE 7.0 mph11.3 kmh 29.86 in1011.2 mb 0.00 in0.0 mm 0.00 in0.0 mm 0.00 in0.0 mm
04:30 AM 49.6°F9.8°C 40.2°F4.6°C 70% 4.0 mph NNE6.4 kmh NNE 5.0 mph8.0 kmh 29.85 in1010.8 mb 0.00 in0.0 mm 0.00 in0.0 mm 0.00 in0.0 mm
04:25 AM 49.8°F9.9°C 40.4°F4.7°C 70% 1.0 mph N1.6 kmh N 4.0 mph6.4 kmh 29.85 in1010.8 mb 0.00 in0.0 mm 0.00 in0.0 mm 0.00 in0.0 mm
04:20 AM 49.5°F9.7°C 40.1°F4.5°C 70% 3.0 mph NW4.8 kmh NW 4.0 mph6.4 kmh 29.85 in1010.8 mb 0.00 in0.0 mm 0.00 in0.0 mm 0.00 in0.0 mm
04:15 AM 49.5°F9.7°C 40.1°F4.5°C 70% 2.0 mph 3.2 kmh 5.0 mph8.0 kmh 29.86 in1011.2 mb 0.00 in0.0 mm 0.00 in0.0 mm 0.00 in0.0 mm
04:10 AM 50.1°F10.1°C 40.3°F4.6°C 69% 1.0 mph ENE1.6 kmh ENE 4.0 mph6.4 kmh 29.86 in1011.2 mb 0.00 in0.0 mm 0.00 in0.0 mm 0.00 in0.0 mm
04:05 AM 50.8°F10.4°C 40.6°F4.8°C 68% 2.0 mph NE3.2 kmh NE 3.0 mph4.8 kmh 29.85 in1010.8 mb 0.00 in0.0 mm 0.00 in0.0 mm 0.00 in0.0 mm
04:00 AM 51.3°F10.7°C 40.3°F4.6°C 66% Calm Calm 3.0 mph4.8 kmh 29.86 in1011.2 mb 0.00 in0.0 mm 0.00 in0.0 mm 0.00 in0.0 mm
03:55 AM 51.5°F10.8°C 40.5°F4.7°C 66% Calm Calm 4.0 mph6.4 kmh 29.86 in1011.2 mb 0.00 in0.0 mm 0.00 in0.0 mm 0.00 in0.0 mm
03:50 AM 51.5°F10.8°C 40.5°F4.7°C 66% 1.0 mph NW1.6 kmh NW 9.0 mph14.5 kmh 29.86 in1011.2 mb 0.00 in0.0 mm 0.00 in0.0 mm 0.00 in0.0 mm
03:45 AM 51.3°F10.7°C 40.3°F4.6°C 66% 6.0 mph NW9.7 kmh NW 12.0 mph19.3 kmh 29.86 in1011.2 mb 0.00 in0.0 mm 0.00 in0.0 mm 0.00 in0.0 mm
03:40 AM 51.2°F10.7°C 40.6°F4.8°C 67% 4.0 mph NW6.4 kmh NW 5.0 mph8.0 kmh 29.86 in1011.2 mb 0.00 in0.0 mm 0.00 in0.0 mm 0.00 in0.0 mm
03:35 AM 51.1°F10.6°C 40.5°F4.7°C 67% 2.0 mph W3.2 kmh W 7.0 mph11.3 kmh 29.85 in1010.8 mb 0.00 in0.0 mm 0.00 in0.0 mm 0.00 in0.0 mm
03:30 AM 50.8°F10.4°C 40.6°F4.8°C 68% 1.0 mph WNW1.6 kmh WNW 10.0 mph16.1 kmh 29.85 in1010.8 mb 0.00 in0.0 mm 0.00 in0.0 mm 0.00 in0.0 mm
03:25 AM 50.9°F10.5°C 40.7°F4.8°C 68% 2.0 mph WNW3.2 kmh WNW 13.0 mph20.9 kmh 29.85 in1010.8 mb 0.00 in0.0 mm 0.00 in0.0 mm 0.00 in0.0 mm
03:20 AM 50.9°F10.5°C 40.7°F4.8°C 68% 6.0 mph WSW9.7 kmh WSW 9.0 mph14.5 kmh 29.85 in1010.8 mb 0.00 in0.0 mm 0.00 in0.0 mm 0.00 in0.0 mm
03:15 AM 51.2°F10.7°C 41.0°F5.0°C 68% 6.0 mph W9.7 kmh W 9.0 mph14.5 kmh 29.86 in1011.2 mb 0.00 in0.0 mm 0.00 in0.0 mm 0.00 in0.0 mm
03:10 AM 51.3°F10.7°C 40.7°F4.8°C 67% 3.0 mph NW4.8 kmh NW 12.0 mph19.3 kmh 29.86 in1011.2 mb 0.00 in0.0 mm 0.00 in0.0 mm 0.00 in0.0 mm
03:05 AM 51.5°F10.8°C 40.9°F4.9°C 67% 3.0 mph WNW4.8 kmh WNW 15.0 mph24.1 kmh 29.86 in1011.2 mb 0.00 in0.0 mm 0.00 in0.0 mm 0.00 in0.0 mm
03:00 AM 51.7°F10.9°C 41.0°F5.0°C 67% 5.0 mph NW8.0 kmh NW 12.0 mph19.3 kmh 29.87 in1011.5 mb 0.00 in0.0 mm 0.00 in0.0 mm 0.00 in0.0 mm
02:55 AM 52.0°F11.1°C 40.9°F4.9°C 66% 5.0 mph NW8.0 kmh NW 14.0 mph22.5 kmh 29.86 in1011.2 mb 0.00 in0.0 mm 0.00 in0.0 mm 0.00 in0.0 mm
02:50 AM 52.3°F11.3°C 40.8°F4.9°C 65% 9.0 mph N14.5 kmh N 16.0 mph25.7 kmh 29.86 in1011.2 mb 0.00 in0.0 mm 0.00 in0.0 mm 0.00 in0.0 mm
02:45 AM 52.6°F11.4°C 40.7°F4.8°C 64% 11.0 mph WSW17.7 kmh WSW 25.0 mph40.2 kmh 29.87 in1011.5 mb 0.00 in0.0 mm 0.00 in0.0 mm 0.00 in0.0 mm
02:40 AM 52.5°F11.4°C 40.6°F4.8°C 64% 11.0 mph NNW17.7 kmh NNW 25.0 mph40.2 kmh 29.87 in1011.5 mb 0.00 in0.0 mm 0.00 in0.0 mm 0.00 in0.0 mm
02:35 AM 52.6°F11.4°C 40.7°F4.8°C 64% 14.0 mph WNW22.5 kmh WNW 22.0 mph35.4 kmh 29.86 in1011.2 mb 0.00 in0.0 mm 0.00 in0.0 mm 0.00 in0.0 mm
02:30 AM 52.7°F11.5°C 40.8°F4.9°C 64% 5.0 mph WSW8.0 kmh WSW 21.0 mph33.8 kmh 29.86 in1011.2 mb 0.00 in0.0 mm 0.00 in0.0 mm 0.00 in0.0 mm
02:25 AM 52.9°F11.6°C 41.0°F5.0°C 64% 16.0 mph WNW25.7 kmh WNW 18.0 mph29.0 kmh 29.86 in1011.2 mb 0.00 in0.0 mm 0.00 in0.0 mm 0.00 in0.0 mm
02:20 AM 53.1°F11.7°C 40.8°F4.9°C 63% 13.0 mph NW20.9 kmh NW 18.0 mph29.0 kmh 29.86 in1011.2 mb 0.00 in0.0 mm 0.00 in0.0 mm 0.00 in0.0 mm
02:15 AM 53.3°F11.8°C 40.6°F4.8°C 62% 14.0 mph W22.5 kmh W 21.0 mph33.8 kmh 29.86 in1011.2 mb 0.00 in0.0 mm 0.00 in0.0 mm 0.00 in0.0 mm
02:10 AM 53.3°F11.8°C 40.6°F4.8°C 62% 9.0 mph W14.5 kmh W 22.0 mph35.4 kmh 29.86 in1011.2 mb 0.00 in0.0 mm 0.00 in0.0 mm 0.00 in0.0 mm
02:05 AM 53.4°F11.9°C 40.2°F4.6°C 61% 17.0 mph W27.4 kmh W 20.0 mph32.2 kmh 29.86 in1011.2 mb 0.00 in0.0 mm 0.00 in0.0 mm 0.00 in0.0 mm
02:00 AM 53.5°F11.9°C 40.3°F4.6°C 61% 5.0 mph WNW8.0 kmh WNW 21.0 mph33.8 kmh 29.86 in1011.2 mb 0.00 in0.0 mm 0.00 in0.0 mm 0.00 in0.0 mm
01:55 AM 53.6°F12.0°C 40.4°F4.7°C 61% 13.0 mph NNW20.9 kmh NNW 19.0 mph30.6 kmh 29.86 in1011.2 mb 0.00 in0.0 mm 0.00 in0.0 mm 0.00 in0.0 mm
01:50 AM 53.7°F12.1°C 40.5°F4.7°C 61% 12.0 mph NW19.3 kmh NW 19.0 mph30.6 kmh 29.87 in1011.5 mb 0.00 in0.0 mm 0.00 in0.0 mm 0.00 in0.0 mm
01:45 AM 53.7°F12.1°C 40.5°F4.7°C 61% 13.0 mph W20.9 kmh W 19.0 mph30.6 kmh 29.87 in1011.5 mb 0.00 in0.0 mm 0.00 in0.0 mm 0.00 in0.0 mm
01:40 AM 53.7°F12.1°C 40.1°F4.5°C 60% 11.0 mph NNE17.7 kmh NNE 21.0 mph33.8 kmh 29.87 in1011.5 mb 0.00 in0.0 mm 0.00 in0.0 mm 0.00 in0.0 mm
01:35 AM 53.7°F12.1°C 40.5°F4.7°C 61% 8.0 mph N12.9 kmh N 21.0 mph33.8 kmh 29.86 in1011.2 mb 0.00 in0.0 mm 0.00 in0.0 mm 0.00 in0.0 mm
01:30 AM 54.0°F12.2°C 40.8°F4.9°C 61% 2.0 mph NNW3.2 kmh NNW 8.0 mph12.9 kmh 29.87 in1011.5 mb 0.00 in0.0 mm 0.00 in0.0 mm 0.00 in0.0 mm
01:25 AM 54.2°F12.3°C 40.6°F4.8°C 60% 4.0 mph NNW6.4 kmh NNW 8.0 mph12.9 kmh 29.86 in1011.2 mb 0.00 in0.0 mm 0.00 in0.0 mm 0.00 in0.0 mm
01:20 AM 54.3°F12.4°C 40.2°F4.6°C 59% 6.0 mph N9.7 kmh N 19.0 mph30.6 kmh 29.86 in1011.2 mb 0.00 in0.0 mm 0.00 in0.0 mm 0.00 in0.0 mm
01:15 AM 54.3°F12.4°C 40.7°F4.8°C 60% 8.0 mph N12.9 kmh N 13.0 mph20.9 kmh 29.87 in1011.5 mb 0.00 in0.0 mm 0.00 in0.0 mm 0.00 in0.0 mm
01:10 AM 54.4°F12.4°C 41.2°F5.1°C 61% 8.0 mph N12.9 kmh N 13.0 mph20.9 kmh 29.87 in1011.5 mb 0.00 in0.0 mm 0.00 in0.0 mm 0.00 in0.0 mm
01:05 AM 54.2°F12.3°C 40.6°F4.8°C 60% 4.0 mph WNW6.4 kmh WNW 16.0 mph25.7 kmh 29.87 in1011.5 mb 0.00 in0.0 mm 0.00 in0.0 mm 0.00 in0.0 mm
01:00 AM 53.8°F12.1°C 41.0°F5.0°C 62% 4.0 mph N6.4 kmh N 17.0 mph27.4 kmh 29.87 in1011.5 mb 0.00 in0.0 mm 0.00 in0.0 mm 0.00 in0.0 mm
12:55 AM 53.1°F11.7°C 40.8°F4.9°C 63% 11.0 mph NW17.7 kmh NW 17.0 mph27.4 kmh 29.87 in1011.5 mb 0.00 in0.0 mm 0.00 in0.0 mm 0.00 in0.0 mm
12:50 AM 52.5°F11.4°C 40.2°F4.6°C 63% 4.0 mph NW6.4 kmh NW 12.0 mph19.3 kmh 29.87 in1011.5 mb 0.00 in0.0 mm 0.00 in0.0 mm 0.00 in0.0 mm
12:45 AM 51.9°F11.1°C 40.1°F4.5°C 64% 2.0 mph NNW3.2 kmh NNW 11.0 mph17.7 kmh 29.86 in1011.2 mb 0.00 in0.0 mm 0.00 in0.0 mm 0.00 in0.0 mm
12:40 AM 51.4°F10.8°C 39.6°F4.2°C 64% 5.0 mph N8.0 kmh N 9.0 mph14.5 kmh 29.86 in1011.2 mb 0.00 in0.0 mm 0.00 in0.0 mm 0.00 in0.0 mm
12:35 AM 51.3°F10.7°C 39.5°F4.2°C 64% 1.0 mph N1.6 kmh N 7.0 mph11.3 kmh 29.86 in1011.2 mb 0.00 in0.0 mm 0.00 in0.0 mm 0.00 in0.0 mm
12:30 AM 51.2°F10.7°C 39.4°F4.1°C 64% 4.0 mph NNE6.4 kmh NNE 5.0 mph8.0 kmh 29.85 in1010.8 mb 0.00 in0.0 mm 0.00 in0.0 mm 0.00 in0.0 mm
12:25 AM 51.2°F10.7°C 39.4°F4.1°C 64% 2.0 mph NE3.2 kmh NE 4.0 mph6.4 kmh 29.85 in1010.8 mb 0.00 in0.0 mm 0.00 in0.0 mm 0.00 in0.0 mm
12:20 AM 51.0°F10.6°C 38.8°F3.8°C 63% Calm Calm 3.0 mph4.8 kmh 29.85 in1010.8 mb 0.00 in0.0 mm 0.00 in0.0 mm 0.00 in0.0 mm
12:15 AM 51.0°F10.6°C 39.6°F4.2°C 65% 1.0 mph N1.6 kmh N 2.0 mph3.2 kmh 29.85 in1010.8 mb 0.00 in0.0 mm 0.00 in0.0 mm 0.00 in0.0 mm
12:10 AM 51.2°F10.7°C 39.8°F4.3°C 65% Calm Calm -- 29.84 in1010.5 mb 0.00 in0.0 mm 0.00 in0.0 mm 0.00 in0.0 mm
12:05 AM 51.2°F10.7°C 39.8°F4.3°C 65% Calm Calm 1.0 mph1.6 kmh 29.84 in1010.5 mb 0.00 in0.0 mm 0.00 in0.0 mm 0.00 in0.0 mm
12:00 AM 51.2°F10.7°C 39.8°F4.3°C 65% Calm Calm 6.0 mph9.7 kmh 29.84 in1010.5 mb 0.00 in0.0 mm 0.00 in0.0 mm 0.00 in0.0 mm